createdAt,value
2018-02-18T00:00:28.176Z,70.90
2018-02-18T00:03:02.019Z,70.90
2018-02-18T00:05:35.960Z,70.80
2018-02-18T00:08:09.734Z,70.40
2018-02-18T00:10:44.365Z,70.10
2018-02-18T00:13:19.379Z,70.40
2018-02-18T00:15:53.372Z,70.40
2018-02-18T00:18:27.891Z,70.40
2018-02-18T00:21:01.995Z,70.40
2018-02-18T00:23:35.844Z,70.40
2018-02-18T00:26:10.150Z,70.50
2018-02-18T00:28:43.983Z,70.60
2018-02-18T00:31:18.671Z,70.60
2018-02-18T00:33:53.190Z,70.50
2018-02-18T00:36:27.287Z,70.50
2018-02-18T00:39:01.178Z,70.60
2018-02-18T00:41:35.588Z,71.20
2018-02-18T00:44:09.560Z,71.20
2018-02-18T00:46:43.204Z,70.90
2018-02-18T00:49:17.293Z,70.70
2018-02-18T00:51:51.902Z,70.20
2018-02-18T00:54:26.695Z,70.70
2018-02-18T00:57:00.908Z,70.70
2018-02-18T00:59:34.710Z,70.20
2018-02-18T01:02:09.341Z,70.10
2018-02-18T01:04:42.998Z,70.40
2018-02-18T01:07:16.834Z,70.20
2018-02-18T01:09:50.600Z,70.40
2018-02-18T01:12:24.314Z,70.10
2018-02-18T01:14:58.686Z,70.30
2018-02-18T01:17:33.283Z,70.10
2018-02-18T01:20:08.106Z,70.30
2018-02-18T01:22:41.876Z,70.10
2018-02-18T01:25:15.583Z,69.80
2018-02-18T01:27:50.137Z,69.90
2018-02-18T01:30:24.215Z,69.90
2018-02-18T01:32:57.981Z,69.70
2018-02-18T01:35:32.791Z,69.90
2018-02-18T01:38:07.088Z,69.80
2018-02-18T01:40:41.068Z,69.80
2018-02-18T01:43:15.252Z,69.70
2018-02-18T01:45:49.950Z,69.60
2018-02-18T01:48:24.488Z,70.20
2018-02-18T01:50:58.390Z,70.20
2018-02-18T01:53:32.903Z,69.90
2018-02-18T01:56:06.971Z,69.90
2018-02-18T01:58:41.536Z,70.30
2018-02-18T02:01:17.108Z,70.20
2018-02-18T02:03:52.537Z,70.00
2018-02-18T02:06:26.786Z,70.00
2018-02-18T02:09:00.627Z,69.90
2018-02-18T02:11:34.363Z,69.80
2018-02-18T02:14:08.264Z,70.00
2018-02-18T02:16:42.089Z,71.40
2018-02-18T02:19:16.096Z,70.80
2018-02-18T02:21:50.051Z,70.00
2018-02-18T02:24:25.539Z,70.20
2018-02-18T02:26:59.579Z,70.20
2018-02-18T02:29:33.202Z,70.50
2018-02-18T02:32:07.100Z,70.60
2018-02-18T02:34:40.758Z,70.30
2018-02-18T02:37:14.469Z,70.50
2018-02-18T02:39:48.417Z,70.50
2018-02-18T02:42:22.411Z,70.90
2018-02-18T02:44:56.259Z,71.40
2018-02-18T02:47:30.155Z,71.30
2018-02-18T02:50:04.968Z,70.70
2018-02-18T02:52:39.587Z,70.70
2018-02-18T02:55:13.396Z,71.00
2018-02-18T02:57:47.155Z,70.50
2018-02-18T03:00:21.919Z,70.50
2018-02-18T03:02:55.896Z,70.20
2018-02-18T03:05:30.028Z,70.10
2018-02-18T03:08:04.752Z,69.70
2018-02-18T03:10:38.768Z,69.60
2018-02-18T03:13:13.376Z,69.20
2018-02-18T03:15:47.463Z,69.80
2018-02-18T03:18:21.493Z,69.50
2018-02-18T03:20:55.234Z,69.90
2018-02-18T03:23:29.920Z,69.90
2018-02-18T03:26:03.944Z,69.90
2018-02-18T03:28:37.833Z,69.80
2018-02-18T03:31:12.443Z,69.80
2018-02-18T03:33:48.032Z,69.50
2018-02-18T03:36:22.409Z,69.50
2018-02-18T03:38:57.307Z,69.70
2018-02-18T03:41:31.073Z,69.60
2018-02-18T03:44:05.310Z,69.80
2018-02-18T03:46:39.888Z,69.90
2018-02-18T03:49:14.230Z,69.80
2018-02-18T03:51:47.891Z,70.00
2018-02-18T03:54:21.888Z,70.50
2018-02-18T03:56:57.262Z,70.60
2018-02-18T03:59:31.501Z,70.60
2018-02-18T04:02:06.917Z,70.60
2018-02-18T04:04:42.198Z,70.40
2018-02-18T04:07:16.082Z,70.40
2018-02-18T04:09:50.627Z,70.30
2018-02-18T04:12:25.428Z,70.50
2018-02-18T04:14:59.636Z,70.50
2018-02-18T04:17:34.272Z,70.60
2018-02-18T04:20:08.589Z,70.50
2018-02-18T04:22:42.828Z,70.10
2018-02-18T04:25:18.311Z,70.90
2018-02-18T04:27:53.266Z,71.20
2018-02-18T04:30:27.341Z,71.20
2018-02-18T04:33:01.308Z,71.30
2018-02-18T04:35:35.935Z,70.90
2018-02-18T04:38:10.367Z,70.90
2018-02-18T04:40:44.156Z,70.60
2018-02-18T04:43:18.077Z,70.60
2018-02-18T04:45:52.114Z,70.60
2018-02-18T04:48:25.842Z,70.70
2018-02-18T04:50:59.800Z,70.50
2018-02-18T04:53:33.594Z,70.70
2018-02-18T04:56:07.420Z,70.80
2018-02-18T04:58:41.036Z,70.40
2018-02-18T05:01:15.919Z,71.70
2018-02-18T05:03:50.844Z,71.00
2018-02-18T05:06:24.899Z,70.90
2018-02-18T05:08:58.529Z,71.30
2018-02-18T05:11:32.630Z,71.50
2018-02-18T05:14:06.615Z,71.70
2018-02-18T05:16:40.382Z,71.90
2018-02-18T05:19:14.203Z,71.70
2018-02-18T05:21:48.213Z,70.80
2018-02-18T05:24:21.869Z,70.10
2018-02-18T05:26:56.448Z,70.40
2018-02-18T05:29:30.590Z,70.30
2018-02-18T05:32:04.489Z,70.40
2018-02-18T05:34:38.182Z,70.20
2018-02-18T05:37:12.718Z,69.70
2018-02-18T05:39:46.876Z,69.70
2018-02-18T05:42:21.574Z,70.10
2018-02-18T05:44:55.394Z,70.20
2018-02-18T05:47:29.143Z,70.30
2018-02-18T05:50:04.581Z,70.50
2018-02-18T05:52:38.431Z,70.40
2018-02-18T05:55:12.486Z,70.30
2018-02-18T05:57:46.415Z,70.20
2018-02-18T06:00:21.043Z,70.40
2018-02-18T06:02:55.194Z,70.40
2018-02-18T06:05:28.980Z,70.20
2018-02-18T06:08:02.914Z,71.30
2018-02-18T06:10:36.684Z,70.30
2018-02-18T06:13:10.509Z,70.10
2018-02-18T06:15:44.123Z,70.00
2018-02-18T06:18:18.074Z,70.10
2018-02-18T06:20:52.619Z,70.10
2018-02-18T06:23:27.652Z,69.80
2018-02-18T06:26:01.368Z,69.80
2018-02-18T06:28:36.806Z,70.00
2018-02-18T06:31:11.897Z,70.10
2018-02-18T06:33:46.049Z,70.10
2018-02-18T06:36:20.575Z,69.90
2018-02-18T06:38:55.198Z,68.90
2018-02-18T06:41:29.050Z,69.40
2018-02-18T06:44:02.907Z,69.30
2018-02-18T06:46:37.612Z,69.50
2018-02-18T06:49:11.874Z,69.50
2018-02-18T06:51:46.495Z,69.60
2018-02-18T06:54:20.301Z,69.60
2018-02-18T06:56:54.087Z,69.60
2018-02-18T06:59:28.068Z,69.40
2018-02-18T07:02:01.740Z,69.60
2018-02-18T07:04:35.846Z,69.60
2018-02-18T07:07:09.635Z,69.70
2018-02-18T07:09:43.545Z,69.80
2018-02-18T07:12:18.043Z,69.60
2018-02-18T07:14:53.392Z,69.80
2018-02-18T07:17:27.711Z,69.70
2018-02-18T07:20:01.902Z,69.30
2018-02-18T07:22:37.247Z,69.40
2018-02-18T07:25:11.259Z,69.40
2018-02-18T07:27:45.361Z,69.00
2018-02-18T07:30:19.442Z,69.30
2018-02-18T07:32:53.300Z,69.60
2018-02-18T07:35:27.244Z,68.50
2018-02-18T07:38:01.006Z,68.50
2018-02-18T07:40:36.484Z,68.50
2018-02-18T07:43:10.899Z,68.40
2018-02-18T07:45:49.338Z,67.80
2018-02-18T07:48:23.100Z,67.80
2018-02-18T07:50:57.629Z,67.30
2018-02-18T07:53:31.584Z,67.30
2018-02-18T07:56:06.168Z,66.80
2018-02-18T07:58:40.193Z,66.80
2018-02-18T08:01:14.016Z,67.20
2018-02-18T08:03:47.978Z,66.90
2018-02-18T08:06:21.920Z,66.90
2018-02-18T08:08:55.526Z,67.10
2018-02-18T08:11:29.446Z,66.60
2018-02-18T08:14:03.044Z,66.40
2018-02-18T08:16:36.907Z,66.10
2018-02-18T08:19:10.826Z,65.10
2018-02-18T08:21:44.755Z,63.10
2018-02-18T08:24:18.487Z,61.30
2018-02-18T08:26:52.162Z,61.00
2018-02-18T08:29:25.844Z,60.50
2018-02-18T08:31:59.740Z,62.50
2018-02-18T08:34:34.241Z,63.70
2018-02-18T08:37:08.599Z,63.70
2018-02-18T08:39:42.334Z,64.20
2018-02-18T08:42:17.410Z,64.80
2018-02-18T08:44:51.336Z,64.70
2018-02-18T08:47:25.200Z,64.80
2018-02-18T08:50:00.028Z,63.90
2018-02-18T08:52:34.118Z,64.60
2018-02-18T08:55:07.981Z,64.50
2018-02-18T08:57:42.707Z,64.30
2018-02-18T09:00:16.707Z,64.80
2018-02-18T09:02:51.354Z,64.60
2018-02-18T09:05:25.413Z,64.60
2018-02-18T09:07:59.372Z,64.90
2018-02-18T09:10:33.069Z,64.40
2018-02-18T09:13:06.852Z,64.70
2018-02-18T09:15:41.347Z,63.70
2018-02-18T09:18:15.447Z,63.70
2018-02-18T09:20:49.692Z,64.20
2018-02-18T09:23:23.456Z,63.30
2018-02-18T09:25:58.391Z,63.40
2018-02-18T09:28:32.189Z,63.30
2018-02-18T09:31:06.020Z,63.20
2018-02-18T09:33:40.063Z,63.20
2018-02-18T09:36:13.772Z,62.70
2018-02-18T09:38:48.548Z,62.90
2018-02-18T09:41:22.513Z,63.40
2018-02-18T09:43:56.314Z,63.70
2018-02-18T09:46:30.834Z,63.60
2018-02-18T09:49:05.014Z,63.60
2018-02-18T09:51:38.858Z,63.30
2018-02-18T09:54:13.562Z,63.90
2018-02-18T09:56:47.436Z,63.40
2018-02-18T09:59:21.096Z,65.70
2018-02-18T10:01:56.558Z,65.70
2018-02-18T10:04:30.599Z,64.80
2018-02-18T10:07:04.467Z,63.50
2018-02-18T10:09:38.168Z,63.70
2018-02-18T10:12:13.067Z,61.00
2018-02-18T10:14:47.422Z,61.00
2018-02-18T10:17:21.337Z,61.50
2018-02-18T10:19:55.948Z,61.10
2018-02-18T10:22:30.165Z,60.40
2018-02-18T10:25:03.944Z,60.50
2018-02-18T10:27:38.358Z,60.70
2018-02-18T10:30:12.742Z,60.70
2018-02-18T10:32:47.915Z,59.20
2018-02-18T10:35:22.267Z,59.10
2018-02-18T10:37:57.069Z,58.70
2018-02-18T10:40:31.223Z,58.70
2018-02-18T10:43:06.230Z,59.60
2018-02-18T10:45:40.775Z,59.60
2018-02-18T10:48:14.984Z,59.50
2018-02-18T10:50:48.754Z,59.60
2018-02-18T10:53:24.196Z,59.00
2018-02-18T10:55:58.510Z,58.80
2018-02-18T10:58:33.070Z,57.60
2018-02-18T11:01:06.950Z,60.10
2018-02-18T11:03:40.654Z,58.70
2018-02-18T11:06:14.617Z,57.80
2018-02-18T11:08:48.324Z,57.60
2018-02-18T11:11:22.223Z,57.80
2018-02-18T11:13:55.872Z,59.80
2018-02-18T11:16:30.520Z,59.80
2018-02-18T11:19:05.517Z,59.50
2018-02-18T11:21:39.679Z,59.40
2018-02-18T11:24:13.622Z,64.30
2018-02-18T11:26:48.806Z,63.20
2018-02-18T11:29:23.230Z,65.40
2018-02-18T11:31:58.183Z,60.50
2018-02-18T11:34:32.970Z,61.40
2018-02-18T11:37:07.015Z,61.40
2018-02-18T11:39:42.448Z,54.10
2018-02-18T11:42:16.511Z,54.00
2018-02-18T11:44:50.381Z,58.30
2018-02-18T11:47:24.600Z,59.70
2018-02-18T11:49:59.171Z,59.40
2018-02-18T11:52:33.280Z,59.40
2018-02-18T11:55:07.153Z,58.70
2018-02-18T11:57:41.159Z,58.20
2018-02-18T12:00:15.182Z,57.90
2018-02-18T12:02:49.194Z,57.40
2018-02-18T12:05:22.823Z,57.40
2018-02-18T12:07:56.512Z,57.30
2018-02-18T12:10:30.286Z,57.00
2018-02-18T12:13:04.071Z,56.50
2018-02-18T12:15:38.669Z,57.30
2018-02-18T12:18:12.860Z,57.10
2018-02-18T12:20:46.465Z,56.80
2018-02-18T12:23:20.591Z,58.10
2018-02-18T12:25:55.940Z,56.50
2018-02-18T12:28:29.990Z,56.50
2018-02-18T12:31:03.904Z,57.00
2018-02-18T12:33:38.519Z,58.60
2018-02-18T12:36:14.141Z,58.40
2018-02-18T12:38:49.196Z,59.80
2018-02-18T12:41:23.806Z,58.00
2018-02-18T12:43:58.753Z,58.50
2018-02-18T12:46:33.568Z,58.20
2018-02-18T12:49:07.572Z,58.10
2018-02-18T12:51:41.292Z,58.30
2018-02-18T12:54:15.028Z,57.10
2018-02-18T12:56:48.956Z,58.30
2018-02-18T12:59:22.596Z,57.50
2018-02-18T13:01:56.438Z,62.20
2018-02-18T13:04:30.208Z,58.00
2018-02-18T13:07:05.326Z,58.40
2018-02-18T13:09:39.354Z,58.40
2018-02-18T13:12:13.683Z,57.30
2018-02-18T13:14:47.544Z,57.00
2018-02-18T13:17:22.093Z,57.50
2018-02-18T13:19:56.983Z,57.10
2018-02-18T13:22:30.915Z,57.10
2018-02-18T13:25:04.675Z,56.40
2018-02-18T13:27:38.503Z,56.70
2018-02-18T13:30:12.869Z,57.00
2018-02-18T13:32:47.196Z,57.60
2018-02-18T13:35:21.043Z,56.80
2018-02-18T13:37:54.797Z,57.00
2018-02-18T13:40:28.948Z,55.90
2018-02-18T13:43:02.607Z,54.70
2018-02-18T13:45:36.511Z,55.20
2018-02-18T13:48:10.346Z,54.60
2018-02-18T13:50:44.099Z,54.20
2018-02-18T13:53:18.635Z,55.20
2018-02-18T13:55:52.739Z,55.10
2018-02-18T13:58:26.550Z,54.70
2018-02-18T14:01:00.339Z,55.10
2018-02-18T14:03:34.115Z,54.90
2018-02-18T14:06:07.902Z,55.90
2018-02-18T14:08:42.506Z,55.00
2018-02-18T14:11:16.571Z,55.00
2018-02-18T14:13:50.515Z,54.90
2018-02-18T14:16:24.396Z,54.20
2018-02-18T14:18:59.042Z,54.70
2018-02-18T14:21:33.719Z,54.20
2018-02-18T14:24:08.511Z,53.50
2018-02-18T14:26:42.996Z,53.50
2018-02-18T14:29:16.884Z,53.40
2018-02-18T14:31:51.396Z,54.00
2018-02-18T14:34:25.328Z,54.00
2018-02-18T14:37:00.040Z,53.60
2018-02-18T14:39:34.131Z,53.60
2018-02-18T14:42:19.876Z,53.00
2018-02-18T14:45:05.723Z,53.10
2018-02-18T14:47:52.167Z,52.70
2018-02-18T14:53:39.960Z,53.40
2018-02-18T14:59:14.323Z,54.90
2018-02-18T15:01:48.413Z,54.80
2018-02-18T15:04:23.039Z,55.10
2018-02-18T15:06:56.905Z,55.10
2018-02-18T15:09:30.828Z,54.60
2018-02-18T15:12:04.563Z,53.40
2018-02-18T15:14:39.082Z,52.80
2018-02-18T15:17:13.191Z,52.80
2018-02-18T15:19:47.152Z,53.30
2018-02-18T15:22:20.893Z,53.00
2018-02-18T15:24:54.688Z,53.40
2018-02-18T15:27:29.287Z,53.20
2018-02-18T15:30:03.524Z,53.20
2018-02-18T15:32:38.954Z,54.20
2018-02-18T15:35:12.989Z,54.10
2018-02-18T15:37:46.936Z,53.70
2018-02-18T15:40:21.062Z,59.00
2018-02-18T15:42:55.026Z,59.60
2018-02-18T15:45:28.809Z,60.40
2018-02-18T15:48:02.444Z,60.90
2018-02-18T15:50:37.152Z,59.50
2018-02-18T15:53:12.059Z,60.30
2018-02-18T15:55:46.313Z,60.30
2018-02-18T15:58:20.044Z,60.70
2018-02-18T16:00:53.954Z,59.60
2018-02-18T16:03:28.018Z,59.50
2018-02-18T16:06:02.376Z,59.10
2018-02-18T16:08:37.044Z,60.50
2018-02-18T16:11:11.319Z,60.40
2018-02-18T16:13:45.144Z,61.40
2018-02-18T16:16:18.945Z,61.00
2018-02-18T16:18:52.590Z,62.90
2018-02-18T16:21:26.282Z,62.80
2018-02-18T16:24:00.107Z,61.90
2018-02-18T16:26:34.654Z,62.50
2018-02-18T16:29:08.640Z,62.40
2018-02-18T16:31:42.728Z,62.40
2018-02-18T16:34:17.429Z,66.70
2018-02-18T16:36:51.697Z,66.60
2018-02-18T16:39:25.324Z,66.90
2018-02-18T16:41:59.459Z,68.10
2018-02-18T16:44:34.014Z,67.10
2018-02-18T16:47:08.093Z,67.00
2018-02-18T16:49:42.057Z,68.20
2018-02-18T16:52:16.602Z,67.80
2018-02-18T16:54:51.555Z,68.50
2018-02-18T16:57:26.441Z,68.80
2018-02-18T17:00:00.370Z,68.80
2018-02-18T17:02:34.125Z,69.40
2018-02-18T17:05:08.739Z,69.80
2018-02-18T17:07:42.784Z,69.60
2018-02-18T17:10:16.542Z,68.90
2018-02-18T17:12:50.195Z,67.70
2018-02-18T17:15:24.695Z,67.90
2018-02-18T17:17:59.042Z,67.80
2018-02-18T17:20:32.743Z,66.00
2018-02-18T17:23:07.864Z,68.50
2018-02-18T17:25:42.302Z,68.50
2018-02-18T17:28:15.952Z,67.40
2018-02-18T17:30:49.570Z,68.20
2018-02-18T17:33:23.562Z,65.60
2018-02-18T17:35:57.181Z,66.20
2018-02-18T17:38:31.886Z,66.90
2018-02-18T17:41:05.749Z,66.20
2018-02-18T17:43:40.436Z,65.10
2018-02-18T17:46:14.843Z,65.10
2018-02-18T17:48:49.839Z,65.40
2018-02-18T17:51:23.903Z,65.40
2018-02-18T17:53:58.556Z,65.10
2018-02-18T17:56:33.619Z,66.20
2018-02-18T17:59:08.039Z,66.10
2018-02-18T18:01:41.734Z,65.90
2018-02-18T18:04:15.574Z,64.20
2018-02-18T18:06:49.341Z,65.30
2018-02-18T18:09:23.863Z,65.60
2018-02-18T18:11:57.764Z,65.60
2018-02-18T18:14:31.647Z,63.80
2018-02-18T18:17:05.437Z,64.10
2018-02-18T18:19:39.174Z,63.40
2018-02-18T18:22:13.708Z,63.20
2018-02-18T18:24:49.127Z,63.00
2018-02-18T18:27:23.894Z,62.20
2018-02-18T18:29:58.740Z,62.30
2018-02-18T18:32:32.689Z,62.30
2018-02-18T18:35:07.436Z,62.20
2018-02-18T18:37:42.068Z,63.90
2018-02-18T18:40:16.501Z,63.70
2018-02-18T18:42:50.247Z,63.10
2018-02-18T18:45:24.312Z,61.90
2018-02-18T18:47:59.011Z,62.50
2018-02-18T18:50:33.102Z,62.50
2018-02-18T18:53:07.003Z,63.40
2018-02-18T18:55:40.796Z,63.50
2018-02-18T18:58:15.356Z,63.50
2018-02-18T19:00:49.281Z,62.60
2018-02-18T19:03:23.999Z,62.10
2018-02-18T19:05:58.571Z,62.30
2018-02-18T19:08:33.955Z,62.20
2018-02-18T19:11:08.790Z,62.10
2018-02-18T19:13:43.499Z,61.70
2018-02-18T19:16:17.577Z,61.60
2018-02-18T19:18:51.475Z,61.90
2018-02-18T19:21:26.163Z,62.60
2018-02-18T19:24:00.187Z,62.50
2018-02-18T19:26:34.346Z,61.60
2018-02-18T19:29:08.143Z,60.70
2018-02-18T19:31:42.010Z,60.60
2018-02-18T19:34:15.962Z,60.30
2018-02-18T19:36:49.936Z,60.00
2018-02-18T19:39:24.511Z,60.80
2018-02-18T19:41:58.582Z,59.90
2018-02-18T19:44:33.233Z,60.30
2018-02-18T19:47:08.043Z,60.60
2018-02-18T19:49:42.068Z,60.50
2018-02-18T19:52:16.162Z,60.10
2018-02-18T19:54:51.482Z,61.30
2018-02-18T19:57:25.544Z,61.10
2018-02-18T20:00:00.144Z,60.20
2018-02-18T20:02:34.089Z,60.10
2018-02-18T20:05:08.512Z,60.10
2018-02-18T20:07:42.611Z,60.10
2018-02-18T20:10:16.269Z,60.30
2018-02-18T20:12:50.553Z,60.00
2018-02-18T20:15:25.231Z,59.90
2018-02-18T20:17:59.179Z,59.70
2018-02-18T20:20:33.694Z,60.10
2018-02-18T20:23:08.351Z,60.20
2018-02-18T20:25:42.639Z,59.90
2018-02-18T20:28:16.783Z,59.60
2018-02-18T20:30:51.378Z,59.80
2018-02-18T20:33:27.131Z,59.80
2018-02-18T20:36:02.187Z,59.90
2018-02-18T20:38:36.186Z,59.80
2018-02-18T20:41:10.702Z,60.20
2018-02-18T20:43:44.585Z,60.20
2018-02-18T20:46:18.653Z,60.30
2018-02-18T20:48:52.531Z,60.60
2018-02-18T20:51:26.320Z,60.40
2018-02-18T20:54:00.319Z,60.60
2018-02-18T20:56:34.024Z,60.60
2018-02-18T20:59:07.844Z,60.50
2018-02-18T21:01:41.462Z,60.80
2018-02-18T21:04:15.455Z,60.60
2018-02-18T21:06:49.286Z,60.50
2018-02-18T21:09:23.034Z,60.10
2018-02-18T21:11:56.795Z,60.30
2018-02-18T21:14:30.724Z,60.30
2018-02-18T21:17:05.460Z,60.90
2018-02-18T21:19:39.827Z,60.90
2018-02-18T21:22:13.718Z,60.80
2018-02-18T21:24:47.593Z,61.00
2018-02-18T21:27:22.251Z,61.60
2018-02-18T21:29:57.023Z,61.90
2018-02-18T21:32:31.860Z,61.70
2018-02-18T21:35:07.139Z,60.60
2018-02-18T21:37:41.113Z,60.60
2018-02-18T21:40:15.319Z,60.80
2018-02-18T21:42:49.583Z,60.70
2018-02-18T21:45:23.753Z,60.90
2018-02-18T21:47:58.357Z,60.80
2018-02-18T21:50:32.181Z,61.20
2018-02-18T21:53:06.946Z,61.20
2018-02-18T21:55:40.948Z,61.20
2018-02-18T21:58:14.766Z,61.20
2018-02-18T22:00:49.360Z,61.30
2018-02-18T22:03:23.757Z,61.30
2018-02-18T22:05:58.252Z,61.20
2018-02-18T22:08:32.063Z,61.20
2018-02-18T22:11:06.003Z,61.50
2018-02-18T22:13:40.606Z,61.20
2018-02-18T22:16:14.927Z,61.20
2018-02-18T22:18:48.818Z,61.40
2018-02-18T22:21:22.752Z,62.10
2018-02-18T22:23:56.591Z,62.30
2018-02-18T22:26:31.235Z,62.00
2018-02-18T22:29:05.839Z,63.10
2018-02-18T22:31:39.948Z,62.10
2018-02-18T22:34:13.793Z,62.20
2018-02-18T22:36:48.548Z,61.70
2018-02-18T22:39:23.438Z,61.90
2018-02-18T22:41:58.848Z,62.10
2018-02-18T22:44:32.872Z,62.00
2018-02-18T22:47:06.579Z,61.80
2018-02-18T22:49:40.371Z,61.80
2018-02-18T22:52:14.173Z,61.80
2018-02-18T22:54:48.068Z,62.90
2018-02-18T22:57:22.070Z,62.70
2018-02-18T22:59:56.684Z,62.40
2018-02-18T23:02:31.247Z,61.80
2018-02-18T23:08:09.464Z,62.10
2018-02-18T23:10:43.583Z,62.10
2018-02-18T23:13:17.372Z,61.70
2018-02-18T23:15:55.680Z,61.20
2018-02-18T23:18:29.939Z,61.20
2018-02-18T23:21:09.407Z,61.40
2018-02-18T23:23:43.699Z,61.40
2018-02-18T23:26:17.627Z,61.70
2018-02-18T23:28:51.414Z,61.90
2018-02-18T23:31:25.118Z,61.90
2018-02-18T23:33:59.434Z,61.50
2018-02-18T23:36:33.468Z,61.00
2018-02-18T23:39:07.215Z,60.90
2018-02-18T23:41:41.637Z,60.60
2018-02-18T23:44:16.217Z,60.00
2018-02-18T23:46:49.922Z,59.90
2018-02-18T23:49:23.703Z,60.30
2018-02-18T23:51:57.315Z,60.60
2018-02-18T23:54:31.343Z,60.30
2018-02-18T23:57:05.070Z,60.10
2018-02-18T23:59:39.744Z,59.50
